sensor_id;sensor_type;location;lat;lon;timestamp;pressure;altitude;pressure_sealevel;temperature;humidity
60170;BME280;46042;49.444;6.862;2023-03-16T00:02:04;99010.22;;;-0.75;100.00
60170;BME280;46042;49.444;6.862;2023-03-16T00:04:32;99005.91;;;-0.76;100.00
60170;BME280;46042;49.444;6.862;2023-03-16T00:07:07;99001.59;;;-0.76;100.00
60170;BME280;46042;49.444;6.862;2023-03-16T00:09:35;99009.34;;;-0.76;100.00
60170;BME280;46042;49.444;6.862;2023-03-16T00:12:17;99011.97;;;-0.79;100.00
60170;BME280;46042;49.444;6.862;2023-03-16T00:14:46;99011.16;;;-0.81;100.00
60170;BME280;46042;49.444;6.862;2023-03-16T00:17:16;99018.03;;;-0.81;100.00
60170;BME280;46042;49.444;6.862;2023-03-16T00:19:54;99019.84;;;-0.85;100.00
60170;BME280;46042;49.444;6.862;2023-03-16T00:22:26;99017.31;;;-0.91;100.00
60170;BME280;46042;49.444;6.862;2023-03-16T00:24:53;99019.13;;;-0.98;100.00
60170;BME280;46042;49.444;6.862;2023-03-16T00:27:21;99007.91;;;-0.97;100.00
60170;BME280;46042;49.444;6.862;2023-03-16T00:29:50;99007.06;;;-0.97;100.00
60170;BME280;46042;49.444;6.862;2023-03-16T00:32:29;99002.72;;;-0.97;100.00
60170;BME280;46042;49.444;6.862;2023-03-16T00:34:57;99009.59;;;-0.96;100.00
60170;BME280;46042;49.444;6.862;2023-03-16T00:37:25;99007.94;;;-1.00;100.00
60170;BME280;46042;49.444;6.862;2023-03-16T00:39:53;99009.75;;;-1.05;100.00
60170;BME280;46042;49.444;6.862;2023-03-16T00:42:25;99002.00;;;-1.07;100.00
60170;BME280;46042;49.444;6.862;2023-03-16T00:44:55;99002.03;;;-1.08;100.00
60170;BME280;46042;49.444;6.862;2023-03-16T00:47:31;98994.31;;;-1.13;100.00
60170;BME280;46042;49.444;6.862;2023-03-16T00:49:59;98993.50;;;-1.15;100.00
60170;BME280;46042;49.444;6.862;2023-03-16T00:52:27;98984.03;;;-1.16;100.00
60170;BME280;46042;49.444;6.862;2023-03-16T00:54:55;98981.41;;;-1.15;100.00
60170;BME280;46042;49.444;6.862;2023-03-16T00:57:23;98983.16;;;-1.15;100.00
60170;BME280;46042;49.444;6.862;2023-03-16T00:59:51;98978.88;;;-1.18;100.00
60170;BME280;46042;49.444;6.862;2023-03-16T01:02:18;98984.91;;;-1.19;100.00
60170;BME280;46042;49.444;6.862;2023-03-16T01:04:49;98986.66;;;-1.19;100.00
60170;BME280;46042;49.444;6.862;2023-03-16T01:07:17;98991.00;;;-1.24;100.00
60170;BME280;46042;49.444;6.862;2023-03-16T01:09:44;98997.06;;;-1.25;100.00
60170;BME280;46042;49.444;6.862;2023-03-16T01:12:16;98984.22;;;-1.33;100.00
60170;BME280;46042;49.444;6.862;2023-03-16T01:14:43;98989.44;;;-1.38;100.00
60170;BME280;46042;49.444;6.862;2023-03-16T01:17:14;98986.84;;;-1.36;100.00
60170;BME280;46042;49.444;6.862;2023-03-16T01:19:40;98984.44;;;-1.52;100.00
60170;BME280;46042;49.444;6.862;2023-03-16T01:22:09;98979.22;;;-1.47;100.00
60170;BME280;46042;49.444;6.862;2023-03-16T01:24:38;98985.31;;;-1.53;100.00
60170;BME280;46042;49.444;6.862;2023-03-16T01:27:05;98982.72;;;-1.53;100.00
60170;BME280;46042;49.444;6.862;2023-03-16T01:29:33;98984.47;;;-1.53;100.00
60170;BME280;46042;49.444;6.862;2023-03-16T01:32:00;98983.66;;;-1.59;100.00
60170;BME280;46042;49.444;6.862;2023-03-16T01:34:27;98985.38;;;-1.59;100.00
60170;BME280;46042;49.444;6.862;2023-03-16T01:36:54;98988.56;;;-1.34;100.00
60170;BME280;46042;49.444;6.862;2023-03-16T01:39:21;98984.22;;;-1.32;100.00
60170;BME280;46042;49.444;6.862;2023-03-16T01:41:48;98978.22;;;-1.35;100.00
60170;BME280;46042;49.444;6.862;2023-03-16T01:44:18;98980.84;;;-1.37;100.00
60170;BME280;46042;49.444;6.862;2023-03-16T01:46:45;98977.38;;;-1.36;100.00
60170;BME280;46042;49.444;6.862;2023-03-16T01:49:32;98976.38;;;-1.25;100.00
60170;BME280;46042;49.444;6.862;2023-03-16T01:52:09;98966.09;;;-1.30;100.00
60170;BME280;46042;49.444;6.862;2023-03-16T01:54:56;98956.84;;;-1.50;100.00
60170;BME280;46042;49.444;6.862;2023-03-16T01:57:30;98951.72;;;-1.51;100.00
60170;BME280;46042;49.444;6.862;2023-03-16T02:00:15;98952.56;;;-1.51;100.00
60170;BME280;46042;49.444;6.862;2023-03-16T02:02:52;98951.78;;;-1.58;100.00
60170;BME280;46042;49.444;6.862;2023-03-16T02:05:30;98948.34;;;-1.58;100.00
60170;BME280;46042;49.444;6.862;2023-03-16T02:07:59;98952.66;;;-1.59;100.00
60170;BME280;46042;49.444;6.862;2023-03-16T02:10:27;98949.19;;;-1.58;100.00
60170;BME280;46042;49.444;6.862;2023-03-16T02:12:58;98943.13;;;-1.55;100.00
60170;BME280;46042;49.444;6.862;2023-03-16T02:15:25;98937.16;;;-1.59;100.00
60170;BME280;46042;49.444;6.862;2023-03-16T02:17:52;98933.69;;;-1.58;100.00
60170;BME280;46042;49.444;6.862;2023-03-16T02:23:06;98924.16;;;-1.52;100.00
60170;BME280;46042;49.444;6.862;2023-03-16T02:28:26;98919.84;;;-1.52;100.00
60170;BME280;46042;49.444;6.862;2023-03-16T02:30:53;98915.63;;;-1.59;100.00
60170;BME280;46042;49.444;6.862;2023-03-16T02:33:23;98908.75;;;-1.60;100.00
60170;BME280;46042;49.444;6.862;2023-03-16T02:35:50;98906.19;;;-1.62;100.00
60170;BME280;46042;49.444;6.862;2023-03-16T02:38:17;98906.19;;;-1.62;100.00
60170;BME280;46042;49.444;6.862;2023-03-16T02:40:45;98899.28;;;-1.60;100.00
60170;BME280;46042;49.444;6.862;2023-03-16T02:43:23;98904.47;;;-1.61;100.00
60170;BME280;46042;49.444;6.862;2023-03-16T02:45:54;98904.47;;;-1.61;100.00
60170;BME280;46042;49.444;6.862;2023-03-16T02:51:29;98888.84;;;-1.52;100.00
60170;BME280;46042;49.444;6.862;2023-03-16T02:53:56;98889.72;;;-1.54;100.00
60170;BME280;46042;49.444;6.862;2023-03-16T02:56:23;98890.59;;;-1.52;100.00
60170;BME280;46042;49.444;6.862;2023-03-16T02:58:50;98887.97;;;-1.49;100.00
60170;BME280;46042;49.444;6.862;2023-03-16T03:01:17;98881.13;;;-1.53;100.00
60170;BME280;46042;49.444;6.862;2023-03-16T03:03:43;98875.09;;;-1.55;100.00
60170;BME280;46042;49.444;6.862;2023-03-16T03:06:10;98866.47;;;-1.54;100.00
60170;BME280;46042;49.444;6.862;2023-03-16T03:08:36;98869.09;;;-1.56;100.00
60170;BME280;46042;49.444;6.862;2023-03-16T03:11:03;98867.44;;;-1.62;100.00
60170;BME280;46042;49.444;6.862;2023-03-16T03:13:30;98870.94;;;-1.67;100.00
60170;BME280;46042;49.444;6.862;2023-03-16T03:15:57;98872.69;;;-1.68;100.00
60170;BME280;46042;49.444;6.862;2023-03-16T03:18:23;98874.44;;;-1.72;100.00
60170;BME280;46042;49.444;6.862;2023-03-16T03:20:50;98868.50;;;-1.77;100.00
60170;BME280;46042;49.444;6.862;2023-03-16T03:23:17;98875.41;;;-1.79;100.00
60170;BME280;46042;49.444;6.862;2023-03-16T03:25:44;98864.13;;;-1.73;100.00
60170;BME280;46042;49.444;6.862;2023-03-16T03:28:11;98866.69;;;-1.70;100.00
60170;BME280;46042;49.444;6.862;2023-03-16T03:30:37;98869.19;;;-1.64;100.00
60170;BME280;46042;49.444;6.862;2023-03-16T03:33:04;98861.38;;;-1.59;100.00
60170;BME280;46042;49.444;6.862;2023-03-16T03:35:31;98859.69;;;-1.60;100.00
60170;BME280;46042;49.444;6.862;2023-03-16T03:37:57;98861.38;;;-1.61;100.00
60170;BME280;46042;49.444;6.862;2023-03-16T03:40:24;98862.22;;;-1.57;100.00
60170;BME280;46042;49.444;6.862;2023-03-16T03:42:51;98858.75;;;-1.56;100.00
60170;BME280;46042;49.444;6.862;2023-03-16T03:45:18;98852.47;;;-1.36;100.00
60170;BME280;46042;49.444;6.862;2023-03-16T03:47:44;98859.44;;;-1.43;100.00
60170;BME280;46042;49.444;6.862;2023-03-16T03:50:12;98855.19;;;-1.47;100.00
60170;BME280;46042;49.444;6.862;2023-03-16T03:52:39;98862.06;;;-1.45;100.00
60170;BME280;46042;49.444;6.862;2023-03-16T03:55:06;98850.88;;;-1.47;100.00
60170;BME280;46042;49.444;6.862;2023-03-16T03:57:34;98853.50;;;-1.50;100.00
60170;BME280;46042;49.444;6.862;2023-03-16T04:00:01;98849.16;;;-1.46;100.00
60170;BME280;46042;49.444;6.862;2023-03-16T04:02:27;98844.88;;;-1.49;100.00
60170;BME280;46042;49.444;6.862;2023-03-16T04:04:54;98843.16;;;-1.50;100.00
60170;BME280;46042;49.444;6.862;2023-03-16T04:07:21;98847.44;;;-1.49;100.00
60170;BME280;46042;49.444;6.862;2023-03-16T04:09:47;98849.25;;;-1.52;100.00
60170;BME280;46042;49.444;6.862;2023-03-16T04:12:14;98850.97;;;-1.53;100.00
60170;BME280;46042;49.444;6.862;2023-03-16T04:14:40;98842.38;;;-1.53;100.00
60170;BME280;46042;49.444;6.862;2023-03-16T04:17:07;98830.22;;;-1.48;100.00
60170;BME280;46042;49.444;6.862;2023-03-16T04:19:34;98832.88;;;-1.51;100.00
60170;BME280;46042;49.444;6.862;2023-03-16T04:22:00;98825.06;;;-1.48;100.00
60170;BME280;46042;49.444;6.862;2023-03-16T04:24:27;98824.97;;;-1.42;100.00
60170;BME280;46042;49.444;6.862;2023-03-16T04:26:53;98826.78;;;-1.47;100.00
60170;BME280;46042;49.444;6.862;2023-03-16T04:29:20;98828.47;;;-1.45;100.00
60170;BME280;46042;49.444;6.862;2023-03-16T04:31:47;98822.44;;;-1.45;100.00
60170;BME280;46042;49.444;6.862;2023-03-16T04:34:14;98827.59;;;-1.45;100.00
60170;BME280;46042;49.444;6.862;2023-03-16T04:36:40;98822.50;;;-1.50;100.00
60170;BME280;46042;49.444;6.862;2023-03-16T04:39:07;98822.50;;;-1.50;100.00
60170;BME280;46042;49.444;6.862;2023-03-16T04:41:36;98824.28;;;-1.55;100.00
60170;BME280;46042;49.444;6.862;2023-03-16T04:44:03;98820.88;;;-1.57;100.00
60170;BME280;46042;49.444;6.862;2023-03-16T04:46:30;98817.38;;;-1.51;100.00
60170;BME280;46042;49.444;6.862;2023-03-16T04:48:57;98821.69;;;-1.53;100.00
60170;BME280;46042;49.444;6.862;2023-03-16T04:51:25;98814.75;;;-1.50;100.00
60170;BME280;46042;49.444;6.862;2023-03-16T04:53:51;98815.63;;;-1.51;100.00
60170;BME280;46042;49.444;6.862;2023-03-16T04:56:18;98810.38;;;-1.46;100.00
60170;BME280;46042;49.444;6.862;2023-03-16T04:58:49;98818.91;;;-1.41;100.00
60170;BME280;46042;49.444;6.862;2023-03-16T05:01:16;98818.09;;;-1.41;100.00
60170;BME280;46042;49.444;6.862;2023-03-16T05:03:44;98812.91;;;-1.41;100.00
60170;BME280;46042;49.444;6.862;2023-03-16T05:06:11;98813.72;;;-1.38;100.00
60170;BME280;46042;49.444;6.862;2023-03-16T05:08:37;98811.94;;;-1.34;100.00
60170;BME280;46042;49.444;6.862;2023-03-16T05:11:04;98814.53;;;-1.34;100.00
60170;BME280;46042;49.444;6.862;2023-03-16T05:13:32;98815.38;;;-1.34;100.00
60170;BME280;46042;49.444;6.862;2023-03-16T05:15:59;98817.97;;;-1.34;100.00
60170;BME280;46042;49.444;6.862;2023-03-16T05:18:27;98816.22;;;-1.33;100.00
60170;BME280;46042;49.444;6.862;2023-03-16T05:20:55;98822.34;;;-1.39;100.00
60170;BME280;46042;49.444;6.862;2023-03-16T05:23:22;98824.09;;;-1.41;100.00
60170;BME280;46042;49.444;6.862;2023-03-16T05:25:49;98816.22;;;-1.33;100.00
60170;BME280;46042;49.444;6.862;2023-03-16T05:28:16;98817.88;;;-1.29;100.00
60170;BME280;46042;49.444;6.862;2023-03-16T05:30:43;98821.31;;;-1.27;100.00
60170;BME280;46042;49.444;6.862;2023-03-16T05:33:10;98816.06;;;-1.21;100.00
60170;BME280;46042;49.444;6.862;2023-03-16T05:35:38;98816.00;;;-1.16;100.00
60170;BME280;46042;49.444;6.862;2023-03-16T05:38:05;98809.91;;;-1.13;100.00
60170;BME280;46042;49.444;6.862;2023-03-16T05:40:31;98804.66;;;-1.09;100.00
60170;BME280;46042;49.444;6.862;2023-03-16T05:42:59;98802.03;;;-1.06;100.00
60170;BME280;46042;49.444;6.862;2023-03-16T05:45:26;98810.66;;;-1.05;100.00
60170;BME280;46042;49.444;6.862;2023-03-16T05:47:53;98810.66;;;-1.07;100.00
60170;BME280;46042;49.444;6.862;2023-03-16T05:50:20;98807.16;;;-1.03;100.00
60170;BME280;46042;49.444;6.862;2023-03-16T05:52:47;98807.13;;;-0.99;100.00
60170;BME280;46042;49.444;6.862;2023-03-16T05:55:15;98808.00;;;-1.04;100.00
60170;BME280;46042;49.444;6.862;2023-03-16T05:57:42;98801.25;;;-1.09;100.00
60170;BME280;46042;49.444;6.862;2023-03-16T06:00:11;98808.88;;;-1.03;100.00
60170;BME280;46042;49.444;6.862;2023-03-16T06:02:42;98808.00;;;-1.04;100.00
60170;BME280;46042;49.444;6.862;2023-03-16T06:05:09;98812.28;;;-0.99;100.00
60170;BME280;46042;49.444;6.862;2023-03-16T06:07:36;98813.06;;;-0.94;100.00
60170;BME280;46042;49.444;6.862;2023-03-16T06:10:04;98803.47;;;-0.89;100.00
60170;BME280;46042;49.444;6.862;2023-03-16T06:12:31;98799.19;;;-0.89;100.00
60170;BME280;46042;49.444;6.862;2023-03-16T06:15:01;98801.75;;;-0.89;100.00
60170;BME280;46042;49.444;6.862;2023-03-16T06:17:28;98792.22;;;-0.85;100.00
60170;BME280;46042;49.444;6.862;2023-03-16T06:19:54;98787.84;;;-0.81;100.00
60170;BME280;46042;49.444;6.862;2023-03-16T06:22:21;98782.66;;;-0.80;100.00
60170;BME280;46042;49.444;6.862;2023-03-16T06:24:50;98786.88;;;-0.77;100.00
60170;BME280;46042;49.444;6.862;2023-03-16T06:27:18;98782.72;;;-0.86;100.00
60170;BME280;46042;49.444;6.862;2023-03-16T06:29:47;98773.13;;;-0.78;100.00
60170;BME280;46042;49.444;6.862;2023-03-16T06:32:14;98779.06;;;-0.73;100.00
60170;BME280;46042;49.444;6.862;2023-03-16T06:34:40;98773.78;;;-0.66;100.00
60170;BME280;46042;49.444;6.862;2023-03-16T06:37:07;98774.53;;;-0.60;100.00
60170;BME280;46042;49.444;6.862;2023-03-16T06:39:33;98778.72;;;-0.54;100.00
60170;BME280;46042;49.444;6.862;2023-03-16T06:42:00;98772.56;;;-0.47;100.00
60170;BME280;46042;49.444;6.862;2023-03-16T06:44:27;98781.09;;;-0.41;100.00
60170;BME280;46042;49.444;6.862;2023-03-16T06:46:53;98780.09;;;-0.34;100.00
60170;BME280;46042;49.444;6.862;2023-03-16T06:49:20;98787.81;;;-0.33;100.00
60170;BME280;46042;49.444;6.862;2023-03-16T06:51:47;98785.09;;;-0.26;100.00
60170;BME280;46042;49.444;6.862;2023-03-16T06:54:13;98791.97;;;-0.24;100.00
60170;BME280;46042;49.444;6.862;2023-03-16T06:56:40;98806.56;;;-0.20;100.00
60170;BME280;46042;49.444;6.862;2023-03-16T06:59:07;98806.25;;;-0.03;100.00
60170;BME280;46042;49.444;6.862;2023-03-16T07:01:33;98805.13;;;0.09;100.00
60170;BME280;46042;49.444;6.862;2023-03-16T07:04:00;98793.63;;;0.23;100.00
60170;BME280;46042;49.444;6.862;2023-03-16T07:06:27;98805.44;;;0.36;100.00
60170;BME280;46042;49.444;6.862;2023-03-16T07:08:53;98817.88;;;0.60;100.00
60170;BME280;46042;49.444;6.862;2023-03-16T07:11:20;98823.03;;;0.99;100.00
60170;BME280;46042;49.444;6.862;2023-03-16T07:13:47;98830.13;;;1.62;100.00
60170;BME280;46042;49.444;6.862;2023-03-16T07:16:13;98828.50;;;1.91;100.00
60170;BME280;46042;49.444;6.862;2023-03-16T07:18:40;98817.00;;;1.99;100.00
60170;BME280;46042;49.444;6.862;2023-03-16T07:21:10;98827.44;;;1.98;100.00
60170;BME280;46042;49.444;6.862;2023-03-16T07:23:36;98808.31;;;2.01;100.00
60170;BME280;46042;49.444;6.862;2023-03-16T07:26:03;98803.94;;;2.03;100.00
60170;BME280;46042;49.444;6.862;2023-03-16T07:28:30;98803.94;;;2.03;100.00
60170;BME280;46042;49.444;6.862;2023-03-16T07:30:57;98792.22;;;2.18;100.00
60170;BME280;46042;49.444;6.862;2023-03-16T07:33:31;98794.94;;;2.43;100.00
60170;BME280;46042;49.444;6.862;2023-03-16T07:35:58;98796.81;;;2.68;100.00
60170;BME280;46042;49.444;6.862;2023-03-16T07:38:25;98805.22;;;2.76;100.00
60170;BME280;46042;49.444;6.862;2023-03-16T07:40:52;98798.53;;;2.96;100.00
60170;BME280;46042;49.444;6.862;2023-03-16T07:43:18;98798.53;;;2.96;100.00
60170;BME280;46042;49.444;6.862;2023-03-16T07:45:49;98796.22;;;3.13;100.00
60170;BME280;46042;49.444;6.862;2023-03-16T07:48:17;98799.88;;;3.08;100.00
60170;BME280;46042;49.444;6.862;2023-03-16T07:50:46;98802.97;;;3.19;100.00
60170;BME280;46042;49.444;6.862;2023-03-16T07:53:13;98805.59;;;3.45;100.00
60170;BME280;46042;49.444;6.862;2023-03-16T07:55:43;98803.28;;;3.62;100.00
60170;BME280;46042;49.444;6.862;2023-03-16T07:58:10;98806.28;;;3.75;96.03
60170;BME280;46042;49.444;6.862;2023-03-16T08:00:38;98801.91;;;4.01;100.00
60170;BME280;46042;49.444;6.862;2023-03-16T08:03:05;98804.56;;;3.99;94.44
60170;BME280;46042;49.444;6.862;2023-03-16T08:05:31;98802.16;;;3.95;94.09
60170;BME280;46042;49.444;6.862;2023-03-16T08:07:58;98795.41;;;3.89;93.30
60170;BME280;46042;49.444;6.862;2023-03-16T08:10:27;98792.38;;;4.00;95.19
60170;BME280;46042;49.444;6.862;2023-03-16T08:12:54;98807.88;;;4.05;95.54
60170;BME280;46042;49.444;6.862;2023-03-16T08:15:21;98792.63;;;4.18;94.70
60170;BME280;46042;49.444;6.862;2023-03-16T08:17:48;98790.63;;;4.24;95.10
60170;BME280;46042;49.444;6.862;2023-03-16T08:20:15;98782.94;;;4.21;93.43
60170;BME280;46042;49.444;6.862;2023-03-16T08:22:41;98775.94;;;4.22;94.72
60170;BME280;46042;49.444;6.862;2023-03-16T08:25:11;98800.72;;;4.10;93.04
60170;BME280;46042;49.444;6.862;2023-03-16T08:27:38;98791.94;;;4.12;95.40
60170;BME280;46042;49.444;6.862;2023-03-16T08:30:07;98780.94;;;4.28;94.90
60170;BME280;46042;49.444;6.862;2023-03-16T08:32:36;98775.72;;;4.50;96.26
60170;BME280;46042;49.444;6.862;2023-03-16T08:35:10;98777.75;;;4.66;94.89
60170;BME280;46042;49.444;6.862;2023-03-16T08:37:40;98778.44;;;4.71;92.02
60170;BME280;46042;49.444;6.862;2023-03-16T08:40:08;98779.75;;;4.59;89.41
60170;BME280;46042;49.444;6.862;2023-03-16T08:42:36;98775.31;;;4.39;90.63
60170;BME280;46042;49.444;6.862;2023-03-16T08:45:07;98770.81;;;4.43;93.23
60170;BME280;46042;49.444;6.862;2023-03-16T08:47:38;98773.53;;;4.39;90.55
60170;BME280;46042;49.444;6.862;2023-03-16T08:50:07;98761.91;;;4.48;90.46
60170;BME280;46042;49.444;6.862;2023-03-16T08:52:35;98753.91;;;4.75;93.59
60170;BME280;46042;49.444;6.862;2023-03-16T08:55:03;98748.66;;;5.18;88.34
60170;BME280;46042;49.444;6.862;2023-03-16T08:57:32;98760.41;;;5.70;87.81
60170;BME280;46042;49.444;6.862;2023-03-16T08:59:59;98758.84;;;6.25;86.61
60170;BME280;46042;49.444;6.862;2023-03-16T09:02:26;98747.13;;;6.71;80.68
60170;BME280;46042;49.444;6.862;2023-03-16T09:04:53;98763.00;;;6.48;84.23
60170;BME280;46042;49.444;6.862;2023-03-16T09:07:20;98764.50;;;6.35;83.18
60170;BME280;46042;49.444;6.862;2023-03-16T09:09:47;98762.88;;;6.88;84.83
60170;BME280;46042;49.444;6.862;2023-03-16T09:12:13;98762.13;;;7.04;80.74
60170;BME280;46042;49.444;6.862;2023-03-16T09:14:40;62137.28;;;-147.77;100.00
60170;BME280;46042;49.444;6.862;2023-03-16T09:17:07;98762.13;;;7.04;80.74
60170;BME280;46042;49.444;6.862;2023-03-16T09:19:33;98762.66;;;6.56;78.14
60170;BME280;46042;49.444;6.862;2023-03-16T09:22:17;98751.63;;;6.86;82.35
60170;BME280;46042;49.444;6.862;2023-03-16T09:24:45;98748.25;;;7.19;79.06
60170;BME280;46042;49.444;6.862;2023-03-16T09:27:13;62137.28;;;-147.77;100.00
60170;BME280;46042;49.444;6.862;2023-03-16T09:29:41;62137.28;;;-147.77;100.00
60170;BME280;46042;49.444;6.862;2023-03-16T09:32:08;98748.25;;;7.19;79.06
60170;BME280;46042;49.444;6.862;2023-03-16T09:34:35;98738.44;;;7.40;74.35
60170;BME280;46042;49.444;6.862;2023-03-16T09:37:02;98740.06;;;7.77;75.51
60170;BME280;46042;49.444;6.862;2023-03-16T09:39:28;98742.44;;;7.81;73.88
60170;BME280;46042;49.444;6.862;2023-03-16T09:47:23;98742.19;;;8.52;71.25
60170;BME280;46042;49.444;6.862;2023-03-16T09:49:59;98739.56;;;8.52;72.37
60170;BME280;46042;49.444;6.862;2023-03-16T09:55:38;98738.38;;;8.74;71.14
60170;BME280;46042;49.444;6.862;2023-03-16T09:58:45;98738.38;;;8.74;71.14
60170;BME280;46042;49.444;6.862;2023-03-16T10:05:15;98729.66;;;9.34;66.80
60170;BME280;46042;49.444;6.862;2023-03-16T10:10:47;98715.69;;;8.57;69.21
60170;BME280;46042;49.444;6.862;2023-03-16T10:16:12;98717.38;;;8.58;70.26
60170;BME280;46042;49.444;6.862;2023-03-16T10:18:45;98719.19;;;8.88;71.31
60170;BME280;46042;49.444;6.862;2023-03-16T10:21:15;98725.53;;;10.03;70.72
60170;BME280;46042;49.444;6.862;2023-03-16T10:23:47;98717.88;;;10.27;66.17
60170;BME280;46042;49.444;6.862;2023-03-16T10:26:20;98724.19;;;10.24;63.68
60170;BME280;46042;49.444;6.862;2023-03-16T10:28:48;98725.16;;;9.80;63.28
60170;BME280;46042;49.444;6.862;2023-03-16T10:31:16;98720.88;;;10.21;64.30
60170;BME280;46042;49.444;6.862;2023-03-16T10:33:46;98717.19;;;10.38;60.47
60170;BME280;46042;49.444;6.862;2023-03-16T10:36:15;98710.84;;;10.82;65.50
60170;BME280;46042;49.444;6.862;2023-03-16T10:38:50;98705.88;;;10.78;59.94
60170;BME280;46042;49.444;6.862;2023-03-16T10:46:16;98704.97;;;10.92;59.99
60170;BME280;46042;49.444;6.862;2023-03-16T10:48:58;98708.00;;;10.86;59.65
60170;BME280;46042;49.444;6.862;2023-03-16T10:51:36;98704.88;;;10.24;57.76
60170;BME280;46042;49.444;6.862;2023-03-16T10:54:08;98700.28;;;10.42;64.63
60170;BME280;46042;49.444;6.862;2023-03-16T10:56:39;98693.56;;;10.36;59.86
60170;BME280;46042;49.444;6.862;2023-03-16T11:01:55;98701.88;;;10.45;58.70
60170;BME280;46042;49.444;6.862;2023-03-16T11:04:22;98685.41;;;11.22;60.32
60170;BME280;46042;49.444;6.862;2023-03-16T11:06:54;98689.28;;;11.55;59.15
60170;BME280;46042;49.444;6.862;2023-03-16T11:09:33;98683.09;;;11.56;59.38
60170;BME280;46042;49.444;6.862;2023-03-16T11:12:12;98675.31;;;12.05;56.68
60170;BME280;46042;49.444;6.862;2023-03-16T11:14:43;98681.25;;;11.70;56.18
60170;BME280;46042;49.444;6.862;2023-03-16T11:17:15;98671.13;;;11.76;53.57
60170;BME280;46042;49.444;6.862;2023-03-16T11:19:52;98678.09;;;11.64;54.91
60170;BME280;46042;49.444;6.862;2023-03-16T11:22:21;98668.88;;;11.96;55.74
60170;BME280;46042;49.444;6.862;2023-03-16T11:25:01;98665.13;;;12.49;56.08
60170;BME280;46042;49.444;6.862;2023-03-16T11:28:35;98668.28;;;12.54;52.60
60170;BME280;46042;49.444;6.862;2023-03-16T11:30:37;98662.88;;;12.07;51.58
60170;BME280;46042;49.444;6.862;2023-03-16T11:33:10;98664.38;;;12.71;50.45
60170;BME280;46042;49.444;6.862;2023-03-16T11:35:52;98650.28;;;13.06;54.22
60170;BME280;46042;49.444;6.862;2023-03-16T11:38:56;98651.16;;;13.07;54.08
60170;BME280;46042;49.444;6.862;2023-03-16T11:47:05;98633.22;;;12.28;50.66
60170;BME280;46042;49.444;6.862;2023-03-16T11:49:50;98633.06;;;12.54;52.37
60170;BME280;46042;49.444;6.862;2023-03-16T11:57:56;98624.38;;;12.40;49.20
60170;BME280;46042;49.444;6.862;2023-03-16T12:00:34;98619.38;;;12.24;47.70
60170;BME280;46042;49.444;6.862;2023-03-16T12:03:41;98623.25;;;12.31;49.39
60170;BME280;46042;49.444;6.862;2023-03-16T12:06:29;98620.41;;;12.10;50.87
60170;BME280;46042;49.444;6.862;2023-03-16T12:17:59;98605.59;;;12.56;44.08
60170;BME280;46042;49.444;6.862;2023-03-16T12:20:56;98601.25;;;13.02;45.12
60170;BME280;46042;49.444;6.862;2023-03-16T12:23:37;98609.81;;;13.29;46.56
60170;BME280;46042;49.444;6.862;2023-03-16T12:26:06;98593.59;;;13.11;48.65
60170;BME280;46042;49.444;6.862;2023-03-16T12:28:35;98581.78;;;13.26;46.94
60170;BME280;46042;49.444;6.862;2023-03-16T12:31:20;98585.41;;;13.14;48.33
60170;BME280;46042;49.444;6.862;2023-03-16T12:39:16;98563.78;;;14.10;48.26
60170;BME280;46042;49.444;6.862;2023-03-16T12:44:27;62137.28;;;-147.77;100.00
60170;BME280;46042;49.444;6.862;2023-03-16T12:47:02;62137.28;;;-147.77;100.00
60170;BME280;46042;49.444;6.862;2023-03-16T12:49:34;62137.28;;;-147.77;100.00
60170;BME280;46042;49.444;6.862;2023-03-16T12:52:06;62137.28;;;-147.77;100.00
60170;BME280;46042;49.444;6.862;2023-03-16T12:54:48;62137.28;;;-147.77;100.00
60170;BME280;46042;49.444;6.862;2023-03-16T12:57:15;62137.28;;;-147.77;100.00
60170;BME280;46042;49.444;6.862;2023-03-16T12:59:44;62137.28;;;-147.77;100.00
60170;BME280;46042;49.444;6.862;2023-03-16T13:02:41;62137.28;;;-147.77;100.00
60170;BME280;46042;49.444;6.862;2023-03-16T13:05:13;62137.28;;;-147.77;100.00
60170;BME280;46042;49.444;6.862;2023-03-16T13:07:51;62137.28;;;-147.77;100.00
60170;BME280;46042;49.444;6.862;2023-03-16T13:10:28;62137.28;;;-147.77;100.00
60170;BME280;46042;49.444;6.862;2023-03-16T13:13:13;62137.28;;;-147.77;100.00
60170;BME280;46042;49.444;6.862;2023-03-16T13:15:42;62137.28;;;-147.77;100.00
60170;BME280;46042;49.444;6.862;2023-03-16T13:20:55;62137.28;;;-147.77;100.00
60170;BME280;46042;49.444;6.862;2023-03-16T13:23:56;62137.28;;;-147.77;100.00
60170;BME280;46042;49.444;6.862;2023-03-16T13:26:44;62137.28;;;-147.77;100.00
60170;BME280;46042;49.444;6.862;2023-03-16T13:29:20;62137.28;;;-147.77;100.00
60170;BME280;46042;49.444;6.862;2023-03-16T13:32:09;62137.28;;;-147.77;100.00
60170;BME280;46042;49.444;6.862;2023-03-16T13:34:48;62137.28;;;-147.77;100.00
60170;BME280;46042;49.444;6.862;2023-03-16T13:37:17;62137.28;;;-147.77;100.00
60170;BME280;46042;49.444;6.862;2023-03-16T13:39:59;62137.28;;;-147.77;100.00
60170;BME280;46042;49.444;6.862;2023-03-16T13:42:32;62137.28;;;-147.77;100.00
60170;BME280;46042;49.444;6.862;2023-03-16T13:45:10;62137.28;;;-147.77;100.00
60170;BME280;46042;49.444;6.862;2023-03-16T13:47:42;62137.28;;;-147.77;100.00
60170;BME280;46042;49.444;6.862;2023-03-16T13:50:11;62137.28;;;-147.77;100.00
60170;BME280;46042;49.444;6.862;2023-03-16T13:52:39;62137.28;;;-147.77;100.00
60170;BME280;46042;49.444;6.862;2023-03-16T13:55:22;62137.28;;;-147.77;100.00
60170;BME280;46042;49.444;6.862;2023-03-16T13:57:51;62137.28;;;-147.77;100.00
60170;BME280;46042;49.444;6.862;2023-03-16T14:00:26;62137.28;;;-147.77;100.00
60170;BME280;46042;49.444;6.862;2023-03-16T14:02:58;62137.28;;;-147.77;100.00
60170;BME280;46042;49.444;6.862;2023-03-16T14:05:32;62137.28;;;-147.77;100.00
60170;BME280;46042;49.444;6.862;2023-03-16T14:08:00;62137.28;;;-147.77;100.00
60170;BME280;46042;49.444;6.862;2023-03-16T14:10:31;62137.28;;;-147.77;100.00
60170;BME280;46042;49.444;6.862;2023-03-16T14:15:36;62137.28;;;-147.77;100.00
60170;BME280;46042;49.444;6.862;2023-03-16T14:18:12;62137.28;;;-147.77;100.00